sensor_id;sensor_type;location;lat;lon;timestamp;P1;durP1;ratioP1;P2;durP2;ratioP2
14306;SDS011;7237;49.500;11.400;2023-03-23T00:02:00;2.73;;;2.40;;
14306;SDS011;7237;49.500;11.400;2023-03-23T00:04:27;4.87;;;2.87;;
14306;SDS011;7237;49.500;11.400;2023-03-23T00:06:55;5.50;;;2.60;;
14306;SDS011;7237;49.500;11.400;2023-03-23T00:09:22;6.23;;;2.93;;
14306;SDS011;7237;49.500;11.400;2023-03-23T00:11:49;2.70;;;2.50;;
14306;SDS011;7237;49.500;11.400;2023-03-23T00:14:23;3.40;;;2.60;;
14306;SDS011;7237;49.500;11.400;2023-03-23T00:16:50;4.63;;;2.90;;
14306;SDS011;7237;49.500;11.400;2023-03-23T00:19:17;3.47;;;2.47;;
14306;SDS011;7237;49.500;11.400;2023-03-23T00:21:45;2.30;;;2.10;;
14306;SDS011;7237;49.500;11.400;2023-03-23T00:24:12;4.50;;;2.27;;
14306;SDS011;7237;49.500;11.400;2023-03-23T00:26:42;3.23;;;2.07;;
14306;SDS011;7237;49.500;11.400;2023-03-23T00:29:11;2.37;;;2.17;;
14306;SDS011;7237;49.500;11.400;2023-03-23T00:31:40;4.90;;;2.67;;
14306;SDS011;7237;49.500;11.400;2023-03-23T00:34:12;3.67;;;2.40;;
14306;SDS011;7237;49.500;11.400;2023-03-23T00:36:43;6.27;;;2.47;;
14306;SDS011;7237;49.500;11.400;2023-03-23T00:39:10;3.13;;;2.27;;
14306;SDS011;7237;49.500;11.400;2023-03-23T00:41:37;6.13;;;2.83;;
14306;SDS011;7237;49.500;11.400;2023-03-23T00:44:04;3.17;;;2.80;;
14306;SDS011;7237;49.500;11.400;2023-03-23T00:46:33;3.50;;;2.87;;
14306;SDS011;7237;49.500;11.400;2023-03-23T00:49:11;5.13;;;3.07;;
14306;SDS011;7237;49.500;11.400;2023-03-23T00:51:38;5.17;;;3.13;;
14306;SDS011;7237;49.500;11.400;2023-03-23T00:54:05;4.10;;;2.80;;
14306;SDS011;7237;49.500;11.400;2023-03-23T00:56:32;3.97;;;3.00;;
14306;SDS011;7237;49.500;11.400;2023-03-23T00:58:59;5.53;;;3.10;;
14306;SDS011;7237;49.500;11.400;2023-03-23T01:01:26;5.67;;;2.80;;
14306;SDS011;7237;49.500;11.400;2023-03-23T01:03:53;4.77;;;2.83;;
14306;SDS011;7237;49.500;11.400;2023-03-23T01:06:27;4.70;;;3.03;;
14306;SDS011;7237;49.500;11.400;2023-03-23T01:08:55;4.67;;;2.90;;
14306;SDS011;7237;49.500;11.400;2023-03-23T01:11:23;3.10;;;2.40;;
14306;SDS011;7237;49.500;11.400;2023-03-23T01:13:50;3.10;;;2.70;;
14306;SDS011;7237;49.500;11.400;2023-03-23T01:16:17;3.33;;;2.73;;
14306;SDS011;7237;49.500;11.400;2023-03-23T01:18:44;4.10;;;2.87;;
14306;SDS011;7237;49.500;11.400;2023-03-23T01:21:12;3.47;;;2.40;;
14306;SDS011;7237;49.500;11.400;2023-03-23T01:23:41;4.47;;;2.73;;
14306;SDS011;7237;49.500;11.400;2023-03-23T01:26:10;4.37;;;2.70;;
14306;SDS011;7237;49.500;11.400;2023-03-23T01:28:37;3.60;;;3.07;;
14306;SDS011;7237;49.500;11.400;2023-03-23T01:31:05;3.50;;;2.90;;
14306;SDS011;7237;49.500;11.400;2023-03-23T01:33:33;5.93;;;3.23;;
14306;SDS011;7237;49.500;11.400;2023-03-23T01:36:02;6.83;;;2.90;;
14306;SDS011;7237;49.500;11.400;2023-03-23T01:38:29;4.43;;;3.00;;
14306;SDS011;7237;49.500;11.400;2023-03-23T01:40:58;4.80;;;2.57;;
14306;SDS011;7237;49.500;11.400;2023-03-23T01:43:25;6.13;;;2.90;;
14306;SDS011;7237;49.500;11.400;2023-03-23T01:45:52;4.63;;;2.80;;
14306;SDS011;7237;49.500;11.400;2023-03-23T01:48:20;4.37;;;2.90;;
14306;SDS011;7237;49.500;11.400;2023-03-23T01:50:53;6.57;;;3.70;;
14306;SDS011;7237;49.500;11.400;2023-03-23T01:53:22;5.30;;;2.90;;
14306;SDS011;7237;49.500;11.400;2023-03-23T01:55:51;9.70;;;2.70;;
14306;SDS011;7237;49.500;11.400;2023-03-23T01:58:21;5.83;;;2.40;;
14306;SDS011;7237;49.500;11.400;2023-03-23T02:00:50;5.60;;;3.03;;
14306;SDS011;7237;49.500;11.400;2023-03-23T02:03:18;4.80;;;3.00;;
14306;SDS011;7237;49.500;11.400;2023-03-23T02:05:48;3.73;;;2.50;;
14306;SDS011;7237;49.500;11.400;2023-03-23T02:08:15;5.17;;;2.30;;
14306;SDS011;7237;49.500;11.400;2023-03-23T02:10:43;3.63;;;2.53;;
14306;SDS011;7237;49.500;11.400;2023-03-23T02:13:10;3.50;;;2.40;;
14306;SDS011;7237;49.500;11.400;2023-03-23T02:15:45;4.13;;;2.63;;
14306;SDS011;7237;49.500;11.400;2023-03-23T02:18:16;5.70;;;2.50;;
14306;SDS011;7237;49.500;11.400;2023-03-23T02:20:54;2.87;;;2.00;;
14306;SDS011;7237;49.500;11.400;2023-03-23T02:23:38;3.43;;;1.90;;
14306;SDS011;7237;49.500;11.400;2023-03-23T02:26:17;1.50;;;1.40;;
14306;SDS011;7237;49.500;11.400;2023-03-23T02:28:49;2.20;;;1.37;;
14306;SDS011;7237;49.500;11.400;2023-03-23T02:34:06;1.27;;;1.07;;
14306;SDS011;7237;49.500;11.400;2023-03-23T02:36:36;1.93;;;1.27;;
14306;SDS011;7237;49.500;11.400;2023-03-23T02:39:05;1.20;;;1.03;;
14306;SDS011;7237;49.500;11.400;2023-03-23T02:41:36;2.20;;;1.70;;
14306;SDS011;7237;49.500;11.400;2023-03-23T02:44:05;1.50;;;1.40;;
14306;SDS011;7237;49.500;11.400;2023-03-23T02:46:33;1.70;;;1.60;;
14306;SDS011;7237;49.500;11.400;2023-03-23T02:49:02;2.50;;;2.30;;
14306;SDS011;7237;49.500;11.400;2023-03-23T02:51:32;3.23;;;2.13;;
14306;SDS011;7237;49.500;11.400;2023-03-23T02:54:00;2.37;;;1.90;;
14306;SDS011;7237;49.500;11.400;2023-03-23T02:56:28;3.33;;;1.90;;
14306;SDS011;7237;49.500;11.400;2023-03-23T02:58:57;3.43;;;1.83;;
14306;SDS011;7237;49.500;11.400;2023-03-23T03:04:11;1.50;;;1.40;;
14306;SDS011;7237;49.500;11.400;2023-03-23T03:06:42;1.50;;;1.40;;
14306;SDS011;7237;49.500;11.400;2023-03-23T03:09:13;2.13;;;1.33;;
14306;SDS011;7237;49.500;11.400;2023-03-23T03:11:43;1.70;;;1.50;;
14306;SDS011;7237;49.500;11.400;2023-03-23T03:14:13;1.50;;;1.40;;
14306;SDS011;7237;49.500;11.400;2023-03-23T03:16:45;1.20;;;1.10;;
14306;SDS011;7237;49.500;11.400;2023-03-23T03:19:13;1.47;;;1.30;;
14306;SDS011;7237;49.500;11.400;2023-03-23T03:21:44;2.47;;;1.53;;
14306;SDS011;7237;49.500;11.400;2023-03-23T03:24:14;12.07;;;1.93;;
14306;SDS011;7237;49.500;11.400;2023-03-23T03:26:43;13.20;;;2.23;;
14306;SDS011;7237;49.500;11.400;2023-03-23T03:29:12;3.03;;;1.47;;
14306;SDS011;7237;49.500;11.400;2023-03-23T03:31:42;1.37;;;1.27;;
14306;SDS011;7237;49.500;11.400;2023-03-23T03:34:10;2.07;;;1.40;;
14306;SDS011;7237;49.500;11.400;2023-03-23T03:36:44;1.63;;;1.20;;
14306;SDS011;7237;49.500;11.400;2023-03-23T03:39:13;1.17;;;1.10;;
14306;SDS011;7237;49.500;11.400;2023-03-23T03:41:42;1.43;;;1.30;;
14306;SDS011;7237;49.500;11.400;2023-03-23T03:44:10;1.33;;;1.23;;
14306;SDS011;7237;49.500;11.400;2023-03-23T03:46:37;1.00;;;1.00;;
14306;SDS011;7237;49.500;11.400;2023-03-23T03:49:05;0.93;;;0.93;;
14306;SDS011;7237;49.500;11.400;2023-03-23T03:51:33;1.07;;;0.97;;
14306;SDS011;7237;49.500;11.400;2023-03-23T03:54:02;1.17;;;0.90;;
14306;SDS011;7237;49.500;11.400;2023-03-23T03:56:29;1.33;;;1.10;;
14306;SDS011;7237;49.500;11.400;2023-03-23T03:59:00;1.53;;;1.27;;
14306;SDS011;7237;49.500;11.400;2023-03-23T04:01:27;1.23;;;1.13;;
14306;SDS011;7237;49.500;11.400;2023-03-23T04:03:55;1.53;;;1.20;;
14306;SDS011;7237;49.500;11.400;2023-03-23T04:06:22;1.30;;;1.20;;
14306;SDS011;7237;49.500;11.400;2023-03-23T04:08:52;2.10;;;1.23;;
14306;SDS011;7237;49.500;11.400;2023-03-23T04:11:21;1.43;;;1.03;;
14306;SDS011;7237;49.500;11.400;2023-03-23T04:13:48;1.03;;;1.00;;
14306;SDS011;7237;49.500;11.400;2023-03-23T04:16:15;1.13;;;1.03;;
14306;SDS011;7237;49.500;11.400;2023-03-23T04:18:42;1.23;;;1.13;;
14306;SDS011;7237;49.500;11.400;2023-03-23T04:21:10;1.10;;;1.00;;
14306;SDS011;7237;49.500;11.400;2023-03-23T04:23:37;1.67;;;1.13;;
14306;SDS011;7237;49.500;11.400;2023-03-23T04:26:04;1.67;;;1.20;;
14306;SDS011;7237;49.500;11.400;2023-03-23T04:28:33;1.23;;;1.13;;
14306;SDS011;7237;49.500;11.400;2023-03-23T04:31:00;1.13;;;1.03;;
14306;SDS011;7237;49.500;11.400;2023-03-23T04:33:28;1.33;;;1.23;;
14306;SDS011;7237;49.500;11.400;2023-03-23T04:35:56;2.80;;;1.30;;
14306;SDS011;7237;49.500;11.400;2023-03-23T04:38:23;3.80;;;1.20;;
14306;SDS011;7237;49.500;11.400;2023-03-23T04:40:51;2.07;;;1.03;;
14306;SDS011;7237;49.500;11.400;2023-03-23T04:43:20;1.27;;;1.17;;
14306;SDS011;7237;49.500;11.400;2023-03-23T04:45:51;1.70;;;1.13;;
14306;SDS011;7237;49.500;11.400;2023-03-23T04:48:21;1.40;;;1.00;;
14306;SDS011;7237;49.500;11.400;2023-03-23T04:50:48;2.13;;;1.10;;
14306;SDS011;7237;49.500;11.400;2023-03-23T04:53:16;1.70;;;1.00;;
14306;SDS011;7237;49.500;11.400;2023-03-23T04:55:43;1.20;;;1.10;;
14306;SDS011;7237;49.500;11.400;2023-03-23T04:58:10;4.90;;;1.20;;
14306;SDS011;7237;49.500;11.400;2023-03-23T05:00:39;1.00;;;0.90;;
14306;SDS011;7237;49.500;11.400;2023-03-23T05:03:10;1.10;;;1.00;;
14306;SDS011;7237;49.500;11.400;2023-03-23T05:05:41;1.03;;;0.97;;
14306;SDS011;7237;49.500;11.400;2023-03-23T05:08:12;1.27;;;1.07;;
14306;SDS011;7237;49.500;11.400;2023-03-23T05:10:39;1.53;;;1.10;;
14306;SDS011;7237;49.500;11.400;2023-03-23T05:13:06;1.50;;;1.00;;
14306;SDS011;7237;49.500;11.400;2023-03-23T05:15:33;0.97;;;0.97;;
14306;SDS011;7237;49.500;11.400;2023-03-23T05:18:00;0.97;;;0.90;;
14306;SDS011;7237;49.500;11.400;2023-03-23T05:20:28;0.87;;;0.87;;
14306;SDS011;7237;49.500;11.400;2023-03-23T05:22:55;1.73;;;1.10;;
14306;SDS011;7237;49.500;11.400;2023-03-23T05:25:23;1.83;;;1.03;;
14306;SDS011;7237;49.500;11.400;2023-03-23T05:27:51;1.17;;;1.10;;
14306;SDS011;7237;49.500;11.400;2023-03-23T05:30:18;1.67;;;1.10;;
14306;SDS011;7237;49.500;11.400;2023-03-23T05:32:46;2.30;;;1.10;;
14306;SDS011;7237;49.500;11.400;2023-03-23T05:35:15;1.57;;;1.00;;
14306;SDS011;7237;49.500;11.400;2023-03-23T05:37:44;1.87;;;1.10;;
14306;SDS011;7237;49.500;11.400;2023-03-23T05:40:12;1.53;;;1.10;;
14306;SDS011;7237;49.500;11.400;2023-03-23T05:42:39;1.63;;;1.10;;
14306;SDS011;7237;49.500;11.400;2023-03-23T05:45:07;2.20;;;1.17;;
14306;SDS011;7237;49.500;11.400;2023-03-23T05:47:35;1.97;;;1.20;;
14306;SDS011;7237;49.500;11.400;2023-03-23T05:50:03;1.97;;;1.20;;
14306;SDS011;7237;49.500;11.400;2023-03-23T05:52:31;0.90;;;0.90;;
14306;SDS011;7237;49.500;11.400;2023-03-23T05:55:01;1.30;;;1.20;;
14306;SDS011;7237;49.500;11.400;2023-03-23T05:57:29;2.40;;;1.80;;
14306;SDS011;7237;49.500;11.400;2023-03-23T05:59:56;1.37;;;1.10;;
14306;SDS011;7237;49.500;11.400;2023-03-23T06:02:24;1.10;;;1.00;;
14306;SDS011;7237;49.500;11.400;2023-03-23T06:04:54;1.40;;;1.20;;
14306;SDS011;7237;49.500;11.400;2023-03-23T06:07:23;1.13;;;1.03;;
14306;SDS011;7237;49.500;11.400;2023-03-23T06:09:50;2.03;;;1.30;;
14306;SDS011;7237;49.500;11.400;2023-03-23T06:12:18;1.40;;;1.30;;
14306;SDS011;7237;49.500;11.400;2023-03-23T06:14:46;1.43;;;1.33;;
14306;SDS011;7237;49.500;11.400;2023-03-23T06:17:13;2.10;;;1.10;;
14306;SDS011;7237;49.500;11.400;2023-03-23T06:19:41;1.33;;;1.07;;
14306;SDS011;7237;49.500;11.400;2023-03-23T06:22:08;2.53;;;1.27;;
14306;SDS011;7237;49.500;11.400;2023-03-23T06:24:36;1.30;;;1.20;;
14306;SDS011;7237;49.500;11.400;2023-03-23T06:27:03;2.40;;;1.20;;
14306;SDS011;7237;49.500;11.400;2023-03-23T06:29:31;1.33;;;1.23;;
14306;SDS011;7237;49.500;11.400;2023-03-23T06:31:59;1.20;;;1.10;;
14306;SDS011;7237;49.500;11.400;2023-03-23T06:34:27;1.53;;;1.37;;
14306;SDS011;7237;49.500;11.400;2023-03-23T06:36:54;1.57;;;1.40;;
14306;SDS011;7237;49.500;11.400;2023-03-23T06:39:21;1.47;;;1.30;;
14306;SDS011;7237;49.500;11.400;2023-03-23T06:41:48;2.03;;;1.40;;
14306;SDS011;7237;49.500;11.400;2023-03-23T06:44:16;2.40;;;1.30;;
14306;SDS011;7237;49.500;11.400;2023-03-23T06:46:45;1.43;;;1.33;;
14306;SDS011;7237;49.500;11.400;2023-03-23T06:49:13;2.03;;;1.47;;
14306;SDS011;7237;49.500;11.400;2023-03-23T06:51:40;1.40;;;1.30;;
14306;SDS011;7237;49.500;11.400;2023-03-23T06:54:07;2.63;;;1.47;;
14306;SDS011;7237;49.500;11.400;2023-03-23T06:56:34;1.73;;;1.43;;
14306;SDS011;7237;49.500;11.400;2023-03-23T06:59:02;2.57;;;1.50;;
14306;SDS011;7237;49.500;11.400;2023-03-23T07:01:29;1.60;;;1.50;;
14306;SDS011;7237;49.500;11.400;2023-03-23T07:03:57;1.73;;;1.60;;
14306;SDS011;7237;49.500;11.400;2023-03-23T07:06:24;2.40;;;1.40;;
14306;SDS011;7237;49.500;11.400;2023-03-23T07:08:52;1.50;;;1.40;;
14306;SDS011;7237;49.500;11.400;2023-03-23T07:11:19;1.83;;;1.33;;
14306;SDS011;7237;49.500;11.400;2023-03-23T07:13:46;2.70;;;1.90;;
14306;SDS011;7237;49.500;11.400;2023-03-23T07:16:14;2.57;;;1.60;;
14306;SDS011;7237;49.500;11.400;2023-03-23T07:18:42;1.40;;;1.30;;
14306;SDS011;7237;49.500;11.400;2023-03-23T07:21:10;3.03;;;1.40;;
14306;SDS011;7237;49.500;11.400;2023-03-23T07:23:37;2.57;;;1.83;;
14306;SDS011;7237;49.500;11.400;2023-03-23T07:26:05;2.17;;;1.40;;
14306;SDS011;7237;49.500;11.400;2023-03-23T07:28:32;2.27;;;1.50;;
14306;SDS011;7237;49.500;11.400;2023-03-23T07:30:59;1.48;;;1.38;;
14306;SDS011;7237;49.500;11.400;2023-03-23T07:33:26;1.67;;;1.50;;
14306;SDS011;7237;49.500;11.400;2023-03-23T07:35:53;1.30;;;1.20;;
14306;SDS011;7237;49.500;11.400;2023-03-23T07:38:22;1.48;;;1.38;;
14306;SDS011;7237;49.500;11.400;2023-03-23T07:40:52;1.95;;;1.60;;
14306;SDS011;7237;49.500;11.400;2023-03-23T07:43:19;2.08;;;1.40;;
14306;SDS011;7237;49.500;11.400;2023-03-23T07:45:47;1.73;;;1.60;;
14306;SDS011;7237;49.500;11.400;2023-03-23T07:48:14;2.17;;;1.77;;
14306;SDS011;7237;49.500;11.400;2023-03-23T07:50:41;2.90;;;1.77;;
14306;SDS011;7237;49.500;11.400;2023-03-23T07:53:08;1.67;;;1.58;;
14306;SDS011;7237;49.500;11.400;2023-03-23T07:55:37;1.67;;;1.55;;
14306;SDS011;7237;49.500;11.400;2023-03-23T07:58:04;1.60;;;1.50;;
14306;SDS011;7237;49.500;11.400;2023-03-23T08:00:32;2.67;;;1.50;;
14306;SDS011;7237;49.500;11.400;2023-03-23T08:03:00;1.90;;;1.58;;
14306;SDS011;7237;49.500;11.400;2023-03-23T08:05:27;1.90;;;1.73;;
14306;SDS011;7237;49.500;11.400;2023-03-23T08:07:54;2.28;;;1.40;;
14306;SDS011;7237;49.500;11.400;2023-03-23T08:10:22;1.95;;;1.77;;
14306;SDS011;7237;49.500;11.400;2023-03-23T08:12:52;2.15;;;1.80;;
14306;SDS011;7237;49.500;11.400;2023-03-23T08:15:19;2.40;;;1.90;;
14306;SDS011;7237;49.500;11.400;2023-03-23T08:17:46;4.00;;;1.77;;
14306;SDS011;7237;49.500;11.400;2023-03-23T08:20:14;2.03;;;1.88;;
14306;SDS011;7237;49.500;11.400;2023-03-23T08:22:44;2.60;;;2.10;;
14306;SDS011;7237;49.500;11.400;2023-03-23T08:25:12;2.53;;;1.83;;
14306;SDS011;7237;49.500;11.400;2023-03-23T08:27:42;2.00;;;1.55;;
14306;SDS011;7237;49.500;11.400;2023-03-23T08:30:11;3.08;;;1.85;;
14306;SDS011;7237;49.500;11.400;2023-03-23T08:32:39;2.65;;;2.00;;
14306;SDS011;7237;49.500;11.400;2023-03-23T08:35:07;2.15;;;1.90;;
14306;SDS011;7237;49.500;11.400;2023-03-23T08:37:34;2.70;;;2.22;;
14306;SDS011;7237;49.500;11.400;2023-03-23T08:40:02;3.20;;;2.47;;
14306;SDS011;7237;49.500;11.400;2023-03-23T08:42:35;3.42;;;2.22;;
14306;SDS011;7237;49.500;11.400;2023-03-23T08:45:03;2.03;;;1.85;;
14306;SDS011;7237;49.500;11.400;2023-03-23T08:47:32;3.80;;;2.20;;
14306;SDS011;7237;49.500;11.400;2023-03-23T08:49:59;2.00;;;1.80;;
14306;SDS011;7237;49.500;11.400;2023-03-23T08:52:27;2.22;;;2.05;;
14306;SDS011;7237;49.500;11.400;2023-03-23T08:54:54;4.43;;;2.00;;
14306;SDS011;7237;49.500;11.400;2023-03-23T08:57:22;3.80;;;1.92;;
14306;SDS011;7237;49.500;11.400;2023-03-23T08:59:49;2.20;;;2.00;;
14306;SDS011;7237;49.500;11.400;2023-03-23T09:02:16;4.15;;;2.10;;
14306;SDS011;7237;49.500;11.400;2023-03-23T09:04:44;2.25;;;2.00;;
14306;SDS011;7237;49.500;11.400;2023-03-23T09:07:12;2.10;;;1.90;;
14306;SDS011;7237;49.500;11.400;2023-03-23T09:09:40;2.47;;;2.10;;
14306;SDS011;7237;49.500;11.400;2023-03-23T09:12:09;3.67;;;2.05;;
14306;SDS011;7237;49.500;11.400;2023-03-23T09:14:37;2.60;;;1.88;;
14306;SDS011;7237;49.500;11.400;2023-03-23T09:17:04;2.30;;;2.10;;
14306;SDS011;7237;49.500;11.400;2023-03-23T09:19:32;2.40;;;2.20;;
14306;SDS011;7237;49.500;11.400;2023-03-23T09:22:01;2.25;;;1.95;;
14306;SDS011;7237;49.500;11.400;2023-03-23T09:24:28;2.22;;;2.03;;
14306;SDS011;7237;49.500;11.400;2023-03-23T09:26:56;2.03;;;1.83;;
14306;SDS011;7237;49.500;11.400;2023-03-23T09:29:24;3.38;;;1.85;;
14306;SDS011;7237;49.500;11.400;2023-03-23T09:31:51;2.33;;;1.85;;
14306;SDS011;7237;49.500;11.400;2023-03-23T09:34:18;2.70;;;2.05;;
14306;SDS011;7237;49.500;11.400;2023-03-23T09:36:45;3.60;;;1.73;;
14306;SDS011;7237;49.500;11.400;2023-03-23T09:39:14;3.08;;;1.85;;
14306;SDS011;7237;49.500;11.400;2023-03-23T09:44:29;2.95;;;2.03;;
14306;SDS011;7237;49.500;11.400;2023-03-23T09:46:58;3.83;;;2.13;;
14306;SDS011;7237;49.500;11.400;2023-03-23T09:49:27;2.30;;;2.10;;
14306;SDS011;7237;49.500;11.400;2023-03-23T09:51:55;3.88;;;2.38;;
14306;SDS011;7237;49.500;11.400;2023-03-23T09:54:26;3.38;;;2.15;;
14306;SDS011;7237;49.500;11.400;2023-03-23T09:56:54;3.25;;;2.42;;
14306;SDS011;7237;49.500;11.400;2023-03-23T09:59:23;3.67;;;2.10;;
14306;SDS011;7237;49.500;11.400;2023-03-23T10:01:51;2.60;;;2.15;;
14306;SDS011;7237;49.500;11.400;2023-03-23T10:04:24;3.75;;;2.55;;
14306;SDS011;7237;49.500;11.400;2023-03-23T10:06:54;2.90;;;2.20;;
14306;SDS011;7237;49.500;11.400;2023-03-23T10:09:25;2.40;;;2.20;;
14306;SDS011;7237;49.500;11.400;2023-03-23T10:11:54;2.10;;;1.90;;
14306;SDS011;7237;49.500;11.400;2023-03-23T10:14:28;6.75;;;2.58;;
14306;SDS011;7237;49.500;11.400;2023-03-23T10:17:00;2.72;;;1.83;;
14306;SDS011;7237;49.500;11.400;2023-03-23T10:19:33;2.95;;;2.50;;
14306;SDS011;7237;49.500;11.400;2023-03-23T10:22:03;3.25;;;2.60;;
14306;SDS011;7237;49.500;11.400;2023-03-23T10:24:34;2.15;;;1.80;;
14306;SDS011;7237;49.500;11.400;2023-03-23T10:27:05;3.38;;;2.17;;
14306;SDS011;7237;49.500;11.400;2023-03-23T10:29:34;2.53;;;1.80;;
14306;SDS011;7237;49.500;11.400;2023-03-23T10:32:03;2.08;;;1.88;;
14306;SDS011;7237;49.500;11.400;2023-03-23T10:34:34;6.45;;;2.65;;
14306;SDS011;7237;49.500;11.400;2023-03-23T10:37:03;2.05;;;1.90;;
14306;SDS011;7237;49.500;11.400;2023-03-23T10:39:37;2.75;;;1.77;;
14306;SDS011;7237;49.500;11.400;2023-03-23T10:42:05;2.60;;;2.10;;
14306;SDS011;7237;49.500;11.400;2023-03-23T10:44:33;3.28;;;2.15;;
14306;SDS011;7237;49.500;11.400;2023-03-23T10:47:01;1.70;;;1.58;;
14306;SDS011;7237;49.500;11.400;2023-03-23T10:49:30;3.38;;;2.08;;
14306;SDS011;7237;49.500;11.400;2023-03-23T10:51:59;2.00;;;1.80;;
14306;SDS011;7237;49.500;11.400;2023-03-23T10:54:31;2.05;;;1.67;;
14306;SDS011;7237;49.500;11.400;2023-03-23T10:57:01;2.15;;;1.88;;
14306;SDS011;7237;49.500;11.400;2023-03-23T10:59:40;3.10;;;1.80;;
14306;SDS011;7237;49.500;11.400;2023-03-23T11:02:10;3.95;;;1.92;;
14306;SDS011;7237;49.500;11.400;2023-03-23T11:04:39;2.08;;;1.75;;
14306;SDS011;7237;49.500;11.400;2023-03-23T11:07:10;2.20;;;1.80;;
14306;SDS011;7237;49.500;11.400;2023-03-23T11:09:40;2.17;;;1.98;;
14306;SDS011;7237;49.500;11.400;2023-03-23T11:12:19;3.35;;;2.08;;
14306;SDS011;7237;49.500;11.400;2023-03-23T11:14:47;3.67;;;1.80;;
14306;SDS011;7237;49.500;11.400;2023-03-23T11:17:20;3.10;;;1.75;;
14306;SDS011;7237;49.500;11.400;2023-03-23T11:19:48;1.67;;;1.50;;
14306;SDS011;7237;49.500;11.400;2023-03-23T11:22:16;1.77;;;1.67;;
14306;SDS011;7237;49.500;11.400;2023-03-23T11:24:44;2.72;;;1.80;;
14306;SDS011;7237;49.500;11.400;2023-03-23T11:27:12;4.18;;;1.88;;
14306;SDS011;7237;49.500;11.400;2023-03-23T11:29:45;2.40;;;1.80;;
14306;SDS011;7237;49.500;11.400;2023-03-23T11:32:12;1.73;;;1.63;;
14306;SDS011;7237;49.500;11.400;2023-03-23T11:34:42;1.70;;;1.60;;
14306;SDS011;7237;49.500;11.400;2023-03-23T11:37:12;3.50;;;1.92;;
14306;SDS011;7237;49.500;11.400;2023-03-23T11:39:47;1.70;;;1.60;;
14306;SDS011;7237;49.500;11.400;2023-03-23T11:42:18;1.50;;;1.40;;
14306;SDS011;7237;49.500;11.400;2023-03-23T11:44:47;1.60;;;1.50;;
14306;SDS011;7237;49.500;11.400;2023-03-23T11:47:16;2.28;;;1.60;;
14306;SDS011;7237;49.500;11.400;2023-03-23T11:49:49;1.92;;;1.58;;
14306;SDS011;7237;49.500;11.400;2023-03-23T11:52:20;2.40;;;1.33;;
14306;SDS011;7237;49.500;11.400;2023-03-23T11:54:50;2.28;;;1.70;;
14306;SDS011;7237;49.500;11.400;2023-03-23T11:57:19;3.20;;;1.67;;
14306;SDS011;7237;49.500;11.400;2023-03-23T11:59:47;2.23;;;1.50;;
14306;SDS011;7237;49.500;11.400;2023-03-23T12:02:32;2.05;;;1.75;;
14306;SDS011;7237;49.500;11.400;2023-03-23T12:05:26;1.55;;;1.42;;
14306;SDS011;7237;49.500;11.400;2023-03-23T12:07:56;1.50;;;1.40;;
14306;SDS011;7237;49.500;11.400;2023-03-23T12:10:28;3.17;;;1.30;;
14306;SDS011;7237;49.500;11.400;2023-03-23T12:13:15;3.35;;;1.63;;
14306;SDS011;7237;49.500;11.400;2023-03-23T12:15:47;1.48;;;1.38;;
14306;SDS011;7237;49.500;11.400;2023-03-23T12:18:17;2.53;;;1.50;;
14306;SDS011;7237;49.500;11.400;2023-03-23T12:20:49;2.50;;;1.70;;
14306;SDS011;7237;49.500;11.400;2023-03-23T12:23:21;2.65;;;1.48;;
14306;SDS011;7237;49.500;11.400;2023-03-23T12:25:58;1.50;;;1.40;;
14306;SDS011;7237;49.500;11.400;2023-03-23T12:28:30;1.85;;;1.70;;
14306;SDS011;7237;49.500;11.400;2023-03-23T12:31:03;1.38;;;1.25;;
14306;SDS011;7237;49.500;11.400;2023-03-23T12:33:34;2.13;;;1.60;;
14306;SDS011;7237;49.500;11.400;2023-03-23T12:36:11;4.50;;;1.45;;
14306;SDS011;7237;49.500;11.400;2023-03-23T12:38:52;1.63;;;1.40;;
14306;SDS011;7237;49.500;11.400;2023-03-23T12:41:23;2.45;;;1.80;;
14306;SDS011;7237;49.500;11.400;2023-03-23T12:43:56;2.47;;;1.80;;
14306;SDS011;7237;49.500;11.400;2023-03-23T12:46:36;2.70;;;1.52;;
14306;SDS011;7237;49.500;11.400;2023-03-23T12:49:04;1.50;;;1.40;;
14306;SDS011;7237;49.500;11.400;2023-03-23T12:51:35;1.90;;;1.48;;
14306;SDS011;7237;49.500;11.400;2023-03-23T12:54:07;3.15;;;1.48;;
14306;SDS011;7237;49.500;11.400;2023-03-23T12:56:37;1.50;;;1.35;;
14306;SDS011;7237;49.500;11.400;2023-03-23T12:59:08;1.88;;;1.40;;
14306;SDS011;7237;49.500;11.400;2023-03-23T13:01:41;1.80;;;1.55;;
14306;SDS011;7237;49.500;11.400;2023-03-23T13:04:10;1.75;;;1.40;;
14306;SDS011;7237;49.500;11.400;2023-03-23T13:06:39;2.42;;;1.77;;
14306;SDS011;7237;49.500;11.400;2023-03-23T13:09:09;2.47;;;1.30;;
14306;SDS011;7237;49.500;11.400;2023-03-23T13:11:39;1.60;;;1.50;;
14306;SDS011;7237;49.500;11.400;2023-03-23T13:14:16;1.77;;;1.23;;
14306;SDS011;7237;49.500;11.400;2023-03-23T13:16:49;1.42;;;1.33;;
14306;SDS011;7237;49.500;11.400;2023-03-23T13:19:20;1.50;;;1.40;;
14306;SDS011;7237;49.500;11.400;2023-03-23T13:21:52;2.10;;;1.20;;
14306;SDS011;7237;49.500;11.400;2023-03-23T13:24:23;1.27;;;1.17;;
14306;SDS011;7237;49.500;11.400;2023-03-23T13:26:52;1.48;;;1.38;;
14306;SDS011;7237;49.500;11.400;2023-03-23T13:29:22;1.52;;;1.33;;
14306;SDS011;7237;49.500;11.400;2023-03-23T13:32:03;1.38;;;1.25;;
14306;SDS011;7237;49.500;11.400;2023-03-23T13:34:31;1.75;;;1.45;;
14306;SDS011;7237;49.500;11.400;2023-03-23T13:36:59;1.30;;;1.20;;
14306;SDS011;7237;49.500;11.400;2023-03-23T13:39:29;1.48;;;1.38;;
14306;SDS011;7237;49.500;11.400;2023-03-23T13:41:59;1.88;;;1.38;;
14306;SDS011;7237;49.500;11.400;2023-03-23T13:44:38;1.85;;;1.20;;
14306;SDS011;7237;49.500;11.400;2023-03-23T13:47:14;1.20;;;1.10;;
14306;SDS011;7237;49.500;11.400;2023-03-23T13:49:45;1.83;;;1.25;;
14306;SDS011;7237;49.500;11.400;2023-03-23T13:52:15;2.65;;;0.93;;
14306;SDS011;7237;49.500;11.400;2023-03-23T13:54:43;1.15;;;1.05;;
14306;SDS011;7237;49.500;11.400;2023-03-23T13:57:21;1.35;;;1.10;;
14306;SDS011;7237;49.500;11.400;2023-03-23T13:59:55;1.30;;;1.20;;
14306;SDS011;7237;49.500;11.400;2023-03-23T14:02:36;1.70;;;1.30;;
14306;SDS011;7237;49.500;11.400;2023-03-23T14:07:53;1.38;;;0.98;;
14306;SDS011;7237;49.500;11.400;2023-03-23T14:10:21;1.00;;;1.00;;
14306;SDS011;7237;49.500;11.400;2023-03-23T14:12:49;0.90;;;0.90;;
14306;SDS011;7237;49.500;11.400;2023-03-23T14:15:17;1.38;;;1.25;;
14306;SDS011;7237;49.500;11.400;2023-03-23T14:17:45;1.15;;;1.02;;
14306;SDS011;7237;49.500;11.400;2023-03-23T14:20:17;1.20;;;1.10;;
14306;SDS011;7237;49.500;11.400;2023-03-23T14:22:46;1.00;;;1.00;;
14306;SDS011;7237;49.500;11.400;2023-03-23T14:25:14;1.02;;;0.95;;
14306;SDS011;7237;49.500;11.400;2023-03-23T14:27:42;1.77;;;1.35;;
14306;SDS011;7237;49.500;11.400;2023-03-23T14:30:12;1.85;;;1.25;;
14306;SDS011;7237;49.500;11.400;2023-03-23T14:32:40;1.02;;;1.00;;
14306;SDS011;7237;49.500;11.400;2023-03-23T14:35:11;1.55;;;1.25;;
14306;SDS011;7237;49.500;11.400;2023-03-23T14:37:39;1.50;;;1.10;;
14306;SDS011;7237;49.500;11.400;2023-03-23T14:40:08;2.08;;;1.25;;
14306;SDS011;7237;49.500;11.400;2023-03-23T14:42:38;2.28;;;2.03;;
14306;SDS011;7237;49.500;11.400;2023-03-23T14:45:06;5.38;;;4.68;;
14306;SDS011;7237;49.500;11.400;2023-03-23T14:47:33;2.20;;;2.00;;
14306;SDS011;7237;49.500;11.400;2023-03-23T14:50:02;7.88;;;7.07;;
14306;SDS011;7237;49.500;11.400;2023-03-23T14:52:33;1.63;;;1.52;;
14306;SDS011;7237;49.500;11.400;2023-03-23T14:55:10;1.90;;;1.63;;
14306;SDS011;7237;49.500;11.400;2023-03-23T14:57:40;1.88;;;1.77;;
14306;SDS011;7237;49.500;11.400;2023-03-23T15:00:11;2.72;;;2.30;;
14306;SDS011;7237;49.500;11.400;2023-03-23T15:02:40;3.42;;;1.80;;
14306;SDS011;7237;49.500;11.400;2023-03-23T15:05:09;2.53;;;2.33;;
14306;SDS011;7237;49.500;11.400;2023-03-23T15:07:39;4.30;;;2.97;;
14306;SDS011;7237;49.500;11.400;2023-03-23T15:10:07;3.38;;;3.08;;
14306;SDS011;7237;49.500;11.400;2023-03-23T15:12:35;5.40;;;4.90;;